sensor_id;sensor_type;location;lat;lon;timestamp;P1;durP1;ratioP1;P2;durP2;ratioP2
58992;SDS011;44782;0.000;0.000;2024-02-04T00:01:03;6.60;;;5.90;;
58992;SDS011;44782;0.000;0.000;2024-02-04T00:03:19;6.50;;;5.90;;
58992;SDS011;44782;0.000;0.000;2024-02-04T00:05:37;6.13;;;5.53;;
58992;SDS011;44782;0.000;0.000;2024-02-04T00:07:52;8.43;;;6.13;;
58992;SDS011;44782;0.000;0.000;2024-02-04T00:10:08;6.53;;;5.23;;
58992;SDS011;44782;0.000;0.000;2024-02-04T00:12:24;6.00;;;5.40;;
58992;SDS011;44782;0.000;0.000;2024-02-04T00:14:39;5.30;;;4.80;;
58992;SDS011;44782;0.000;0.000;2024-02-04T00:16:55;6.30;;;5.70;;
58992;SDS011;44782;0.000;0.000;2024-02-04T00:19:11;6.00;;;5.43;;
58992;SDS011;44782;0.000;0.000;2024-02-04T00:21:26;5.80;;;5.20;;
58992;SDS011;44782;0.000;0.000;2024-02-04T00:23:42;6.17;;;5.53;;
58992;SDS011;44782;0.000;0.000;2024-02-04T00:25:58;5.77;;;5.27;;
58992;SDS011;44782;0.000;0.000;2024-02-04T00:28:14;5.50;;;5.00;;
58992;SDS011;44782;0.000;0.000;2024-02-04T00:30:29;6.07;;;5.07;;
58992;SDS011;44782;0.000;0.000;2024-02-04T00:32:45;5.50;;;4.90;;
58992;SDS011;44782;0.000;0.000;2024-02-04T00:35:01;5.33;;;4.40;;
58992;SDS011;44782;0.000;0.000;2024-02-04T00:37:18;5.47;;;4.97;;
58992;SDS011;44782;0.000;0.000;2024-02-04T00:39:34;5.43;;;4.93;;
58992;SDS011;44782;0.000;0.000;2024-02-04T00:41:49;5.43;;;4.93;;
58992;SDS011;44782;0.000;0.000;2024-02-04T00:44:05;5.23;;;4.73;;
58992;SDS011;44782;0.000;0.000;2024-02-04T00:46:21;5.53;;;4.97;;
58992;SDS011;44782;0.000;0.000;2024-02-04T00:48:37;5.37;;;4.87;;
58992;SDS011;44782;0.000;0.000;2024-02-04T00:50:52;5.30;;;4.80;;
58992;SDS011;44782;0.000;0.000;2024-02-04T00:53:08;4.87;;;4.47;;
58992;SDS011;44782;0.000;0.000;2024-02-04T00:55:24;4.70;;;4.20;;
58992;SDS011;44782;0.000;0.000;2024-02-04T00:57:40;4.80;;;4.40;;
58992;SDS011;44782;0.000;0.000;2024-02-04T00:59:55;4.80;;;4.30;;
58992;SDS011;44782;0.000;0.000;2024-02-04T01:02:11;5.00;;;4.50;;
58992;SDS011;44782;0.000;0.000;2024-02-04T01:04:27;5.03;;;4.53;;
58992;SDS011;44782;0.000;0.000;2024-02-04T01:06:43;4.97;;;4.47;;
58992;SDS011;44782;0.000;0.000;2024-02-04T01:08:59;5.53;;;4.57;;
58992;SDS011;44782;0.000;0.000;2024-02-04T01:11:15;4.93;;;4.40;;
58992;SDS011;44782;0.000;0.000;2024-02-04T01:13:31;4.97;;;4.47;;
58992;SDS011;44782;0.000;0.000;2024-02-04T01:18:36;4.63;;;4.17;;
58992;SDS011;44782;0.000;0.000;2024-02-04T01:20:52;4.87;;;4.33;;
58992;SDS011;44782;0.000;0.000;2024-02-04T01:23:08;6.17;;;4.67;;
58992;SDS011;44782;0.000;0.000;2024-02-04T01:25:24;5.47;;;4.57;;
58992;SDS011;44782;0.000;0.000;2024-02-04T01:27:40;4.23;;;3.70;;
58992;SDS011;44782;0.000;0.000;2024-02-04T01:29:55;4.60;;;4.20;;
58992;SDS011;44782;0.000;0.000;2024-02-04T01:32:11;4.37;;;3.90;;
58992;SDS011;44782;0.000;0.000;2024-02-04T01:34:27;4.50;;;4.10;;
58992;SDS011;44782;0.000;0.000;2024-02-04T01:36:43;4.30;;;3.90;;
58992;SDS011;44782;0.000;0.000;2024-02-04T01:38:58;4.47;;;4.07;;
58992;SDS011;44782;0.000;0.000;2024-02-04T01:41:15;4.23;;;3.83;;
58992;SDS011;44782;0.000;0.000;2024-02-04T01:43:31;4.43;;;4.03;;
58992;SDS011;44782;0.000;0.000;2024-02-04T01:45:47;4.63;;;4.13;;
58992;SDS011;44782;0.000;0.000;2024-02-04T01:48:05;4.40;;;4.00;;
58992;SDS011;44782;0.000;0.000;2024-02-04T01:50:22;4.23;;;3.70;;
58992;SDS011;44782;0.000;0.000;2024-02-04T01:52:38;4.30;;;3.90;;
58992;SDS011;44782;0.000;0.000;2024-02-04T01:54:56;4.70;;;3.80;;
58992;SDS011;44782;0.000;0.000;2024-02-04T01:57:13;4.10;;;3.70;;
58992;SDS011;44782;0.000;0.000;2024-02-04T01:59:29;4.00;;;3.60;;
58992;SDS011;44782;0.000;0.000;2024-02-04T02:01:46;4.17;;;3.67;;
58992;SDS011;44782;0.000;0.000;2024-02-04T02:04:02;4.07;;;3.67;;
58992;SDS011;44782;0.000;0.000;2024-02-04T02:06:20;4.30;;;3.90;;
58992;SDS011;44782;0.000;0.000;2024-02-04T02:08:36;4.27;;;3.60;;
58992;SDS011;44782;0.000;0.000;2024-02-04T02:10:56;4.00;;;3.53;;
58992;SDS011;44782;0.000;0.000;2024-02-04T02:13:29;4.33;;;3.70;;
58992;SDS011;44782;0.000;0.000;2024-02-04T02:15:48;3.63;;;3.33;;
58992;SDS011;44782;0.000;0.000;2024-02-04T02:18:17;3.43;;;3.13;;
58992;SDS011;44782;0.000;0.000;2024-02-04T02:26:07;3.47;;;3.17;;
58992;SDS011;44782;0.000;0.000;2024-02-04T02:28:23;3.80;;;3.40;;
58992;SDS011;44782;0.000;0.000;2024-02-04T02:30:39;3.73;;;3.40;;
58992;SDS011;44782;0.000;0.000;2024-02-04T02:32:55;3.80;;;3.40;;
58992;SDS011;44782;0.000;0.000;2024-02-04T02:35:12;4.63;;;3.30;;
58992;SDS011;44782;0.000;0.000;2024-02-04T02:37:33;3.40;;;3.10;;
58992;SDS011;44782;0.000;0.000;2024-02-04T02:39:59;3.43;;;3.13;;
58992;SDS011;44782;0.000;0.000;2024-02-04T02:42:18;3.40;;;3.10;;
58992;SDS011;44782;0.000;0.000;2024-02-04T02:44:38;3.40;;;3.10;;
58992;SDS011;44782;0.000;0.000;2024-02-04T02:46:54;3.20;;;2.90;;
58992;SDS011;44782;0.000;0.000;2024-02-04T02:49:12;3.73;;;3.33;;
58992;SDS011;44782;0.000;0.000;2024-02-04T02:51:29;3.50;;;3.20;;
58992;SDS011;44782;0.000;0.000;2024-02-04T02:53:44;3.30;;;3.00;;
58992;SDS011;44782;0.000;0.000;2024-02-04T02:56:00;3.13;;;2.83;;
58992;SDS011;44782;0.000;0.000;2024-02-04T02:58:16;3.23;;;2.93;;
58992;SDS011;44782;0.000;0.000;2024-02-04T03:00:32;3.60;;;3.03;;
58992;SDS011;44782;0.000;0.000;2024-02-04T03:02:47;3.43;;;3.13;;
58992;SDS011;44782;0.000;0.000;2024-02-04T03:05:03;2.90;;;2.70;;
58992;SDS011;44782;0.000;0.000;2024-02-04T03:07:19;3.00;;;2.70;;
58992;SDS011;44782;0.000;0.000;2024-02-04T03:09:35;3.50;;;3.20;;
58992;SDS011;44782;0.000;0.000;2024-02-04T03:11:50;3.50;;;3.20;;
58992;SDS011;44782;0.000;0.000;2024-02-04T03:14:06;3.00;;;2.80;;
58992;SDS011;44782;0.000;0.000;2024-02-04T03:16:22;3.00;;;2.70;;
58992;SDS011;44782;0.000;0.000;2024-02-04T03:18:41;2.80;;;2.60;;
58992;SDS011;44782;0.000;0.000;2024-02-04T03:20:57;3.17;;;2.87;;
58992;SDS011;44782;0.000;0.000;2024-02-04T03:23:13;2.90;;;2.70;;
58992;SDS011;44782;0.000;0.000;2024-02-04T03:25:29;3.20;;;2.90;;
58992;SDS011;44782;0.000;0.000;2024-02-04T03:27:44;3.10;;;2.80;;
58992;SDS011;44782;0.000;0.000;2024-02-04T03:30:00;3.17;;;2.87;;
58992;SDS011;44782;0.000;0.000;2024-02-04T03:32:16;3.33;;;2.43;;
58992;SDS011;44782;0.000;0.000;2024-02-04T03:34:32;2.87;;;2.67;;
58992;SDS011;44782;0.000;0.000;2024-02-04T03:36:48;3.00;;;2.80;;
58992;SDS011;44782;0.000;0.000;2024-02-04T03:39:04;2.97;;;2.67;;
58992;SDS011;44782;0.000;0.000;2024-02-04T03:41:19;2.63;;;2.43;;
58992;SDS011;44782;0.000;0.000;2024-02-04T03:43:36;2.50;;;2.30;;
58992;SDS011;44782;0.000;0.000;2024-02-04T03:45:51;2.87;;;2.50;;
58992;SDS011;44782;0.000;0.000;2024-02-04T03:48:07;2.67;;;2.47;;
58992;SDS011;44782;0.000;0.000;2024-02-04T03:50:23;2.87;;;2.57;;
58992;SDS011;44782;0.000;0.000;2024-02-04T03:52:38;2.80;;;2.50;;
58992;SDS011;44782;0.000;0.000;2024-02-04T03:54:54;2.60;;;2.40;;
58992;SDS011;44782;0.000;0.000;2024-02-04T03:57:10;2.60;;;2.40;;
58992;SDS011;44782;0.000;0.000;2024-02-04T03:59:25;2.57;;;2.37;;
58992;SDS011;44782;0.000;0.000;2024-02-04T04:01:46;2.60;;;2.40;;
58992;SDS011;44782;0.000;0.000;2024-02-04T04:04:03;3.17;;;2.43;;
58992;SDS011;44782;0.000;0.000;2024-02-04T04:06:19;3.20;;;2.60;;
58992;SDS011;44782;0.000;0.000;2024-02-04T04:08:34;2.83;;;2.53;;
58992;SDS011;44782;0.000;0.000;2024-02-04T04:10:50;2.60;;;2.40;;
58992;SDS011;44782;0.000;0.000;2024-02-04T04:13:06;2.47;;;2.27;;
58992;SDS011;44782;0.000;0.000;2024-02-04T04:15:22;2.40;;;2.20;;
58992;SDS011;44782;0.000;0.000;2024-02-04T04:17:37;2.83;;;2.63;;
58992;SDS011;44782;0.000;0.000;2024-02-04T04:19:53;2.40;;;2.20;;
58992;SDS011;44782;0.000;0.000;2024-02-04T04:22:09;2.53;;;2.23;;
58992;SDS011;44782;0.000;0.000;2024-02-04T04:24:24;2.40;;;2.20;;
58992;SDS011;44782;0.000;0.000;2024-02-04T04:26:40;2.63;;;2.43;;
58992;SDS011;44782;0.000;0.000;2024-02-04T04:28:56;2.30;;;2.10;;
58992;SDS011;44782;0.000;0.000;2024-02-04T04:31:11;2.47;;;2.27;;
58992;SDS011;44782;0.000;0.000;2024-02-04T04:33:27;2.30;;;2.20;;
58992;SDS011;44782;0.000;0.000;2024-02-04T04:35:43;2.60;;;2.40;;
58992;SDS011;44782;0.000;0.000;2024-02-04T04:37:59;2.50;;;2.30;;
58992;SDS011;44782;0.000;0.000;2024-02-04T04:40:14;2.27;;;2.07;;
58992;SDS011;44782;0.000;0.000;2024-02-04T04:42:30;2.53;;;2.10;;
58992;SDS011;44782;0.000;0.000;2024-02-04T04:44:46;2.37;;;2.17;;
58992;SDS011;44782;0.000;0.000;2024-02-04T04:47:02;2.27;;;2.10;;
58992;SDS011;44782;0.000;0.000;2024-02-04T04:49:17;2.10;;;2.00;;
58992;SDS011;44782;0.000;0.000;2024-02-04T04:51:33;2.27;;;2.07;;
58992;SDS011;44782;0.000;0.000;2024-02-04T04:53:49;2.50;;;2.30;;
58992;SDS011;44782;0.000;0.000;2024-02-04T04:56:04;2.40;;;2.20;;
58992;SDS011;44782;0.000;0.000;2024-02-04T04:58:21;2.00;;;1.90;;
58992;SDS011;44782;0.000;0.000;2024-02-04T05:00:37;2.17;;;1.97;;
58992;SDS011;44782;0.000;0.000;2024-02-04T05:02:52;2.40;;;2.20;;
58992;SDS011;44782;0.000;0.000;2024-02-04T05:05:08;2.20;;;2.00;;
58992;SDS011;44782;0.000;0.000;2024-02-04T05:07:25;2.17;;;1.97;;
58992;SDS011;44782;0.000;0.000;2024-02-04T05:09:41;1.90;;;1.80;;
58992;SDS011;44782;0.000;0.000;2024-02-04T05:11:56;2.33;;;2.13;;
58992;SDS011;44782;0.000;0.000;2024-02-04T05:14:12;2.30;;;2.10;;
58992;SDS011;44782;0.000;0.000;2024-02-04T05:16:28;2.17;;;1.97;;
58992;SDS011;44782;0.000;0.000;2024-02-04T05:18:43;2.20;;;2.00;;
58992;SDS011;44782;0.000;0.000;2024-02-04T05:21:00;2.20;;;2.00;;
58992;SDS011;44782;0.000;0.000;2024-02-04T05:23:17;2.20;;;2.00;;
58992;SDS011;44782;0.000;0.000;2024-02-04T05:25:33;1.87;;;1.77;;
58992;SDS011;44782;0.000;0.000;2024-02-04T05:27:48;2.47;;;2.27;;
58992;SDS011;44782;0.000;0.000;2024-02-04T05:30:04;1.93;;;1.83;;
58992;SDS011;44782;0.000;0.000;2024-02-04T05:32:20;2.07;;;1.93;;
58992;SDS011;44782;0.000;0.000;2024-02-04T05:34:37;2.20;;;2.00;;
58992;SDS011;44782;0.000;0.000;2024-02-04T05:36:53;1.97;;;1.80;;
58992;SDS011;44782;0.000;0.000;2024-02-04T05:39:09;2.33;;;2.13;;
58992;SDS011;44782;0.000;0.000;2024-02-04T05:41:26;2.23;;;2.00;;
58992;SDS011;44782;0.000;0.000;2024-02-04T05:43:42;2.20;;;2.10;;
58992;SDS011;44782;0.000;0.000;2024-02-04T05:45:57;1.73;;;1.63;;
58992;SDS011;44782;0.000;0.000;2024-02-04T05:48:13;2.00;;;1.90;;
58992;SDS011;44782;0.000;0.000;2024-02-04T05:50:29;2.10;;;2.00;;
58992;SDS011;44782;0.000;0.000;2024-02-04T05:52:44;2.10;;;2.00;;
58992;SDS011;44782;0.000;0.000;2024-02-04T05:55:00;2.40;;;2.20;;
58992;SDS011;44782;0.000;0.000;2024-02-04T05:57:16;1.63;;;1.53;;
58992;SDS011;44782;0.000;0.000;2024-02-04T05:59:31;1.73;;;1.63;;
58992;SDS011;44782;0.000;0.000;2024-02-04T06:01:48;2.30;;;2.00;;
58992;SDS011;44782;0.000;0.000;2024-02-04T06:04:03;2.17;;;2.07;;
58992;SDS011;44782;0.000;0.000;2024-02-04T06:06:19;2.10;;;2.00;;
58992;SDS011;44782;0.000;0.000;2024-02-04T06:08:35;1.77;;;1.67;;
58992;SDS011;44782;0.000;0.000;2024-02-04T06:10:50;2.87;;;2.40;;
58992;SDS011;44782;0.000;0.000;2024-02-04T06:13:06;2.40;;;2.30;;
58992;SDS011;44782;0.000;0.000;2024-02-04T06:15:22;2.70;;;2.50;;
58992;SDS011;44782;0.000;0.000;2024-02-04T06:17:37;2.50;;;2.30;;
58992;SDS011;44782;0.000;0.000;2024-02-04T06:19:53;2.30;;;2.10;;
58992;SDS011;44782;0.000;0.000;2024-02-04T06:22:09;2.20;;;2.00;;
58992;SDS011;44782;0.000;0.000;2024-02-04T06:24:24;1.90;;;1.80;;
58992;SDS011;44782;0.000;0.000;2024-02-04T06:26:40;2.30;;;1.83;;
58992;SDS011;44782;0.000;0.000;2024-02-04T06:28:56;2.30;;;1.70;;
58992;SDS011;44782;0.000;0.000;2024-02-04T06:31:12;1.90;;;1.80;;
58992;SDS011;44782;0.000;0.000;2024-02-04T06:33:28;1.90;;;1.80;;
58992;SDS011;44782;0.000;0.000;2024-02-04T06:35:44;2.20;;;1.80;;
58992;SDS011;44782;0.000;0.000;2024-02-04T06:37:59;1.77;;;1.67;;
58992;SDS011;44782;0.000;0.000;2024-02-04T06:40:15;1.97;;;1.80;;
58992;SDS011;44782;0.000;0.000;2024-02-04T06:42:31;2.00;;;1.90;;
58992;SDS011;44782;0.000;0.000;2024-02-04T06:44:46;1.70;;;1.60;;
58992;SDS011;44782;0.000;0.000;2024-02-04T06:47:02;1.90;;;1.80;;
58992;SDS011;44782;0.000;0.000;2024-02-04T06:49:18;1.90;;;1.80;;
58992;SDS011;44782;0.000;0.000;2024-02-04T06:51:33;2.00;;;1.90;;
58992;SDS011;44782;0.000;0.000;2024-02-04T06:53:49;1.70;;;1.60;;
58992;SDS011;44782;0.000;0.000;2024-02-04T06:56:05;1.80;;;1.70;;
58992;SDS011;44782;0.000;0.000;2024-02-04T06:58:21;1.80;;;1.70;;
58992;SDS011;44782;0.000;0.000;2024-02-04T07:00:36;1.50;;;1.40;;
58992;SDS011;44782;0.000;0.000;2024-02-04T07:02:52;1.70;;;1.60;;
58992;SDS011;44782;0.000;0.000;2024-02-04T07:05:08;1.80;;;1.70;;
58992;SDS011;44782;0.000;0.000;2024-02-04T07:07:25;1.70;;;1.60;;
58992;SDS011;44782;0.000;0.000;2024-02-04T07:09:41;1.80;;;1.70;;
58992;SDS011;44782;0.000;0.000;2024-02-04T07:11:56;1.70;;;1.60;;
58992;SDS011;44782;0.000;0.000;2024-02-04T07:14:12;1.60;;;1.50;;
58992;SDS011;44782;0.000;0.000;2024-02-04T07:16:28;1.70;;;1.60;;
58992;SDS011;44782;0.000;0.000;2024-02-04T07:18:44;1.70;;;1.60;;
58992;SDS011;44782;0.000;0.000;2024-02-04T07:20:59;1.70;;;1.60;;
58992;SDS011;44782;0.000;0.000;2024-02-04T07:23:15;1.53;;;1.43;;
58992;SDS011;44782;0.000;0.000;2024-02-04T07:25:31;1.60;;;1.50;;
58992;SDS011;44782;0.000;0.000;2024-02-04T07:27:47;1.50;;;1.40;;
58992;SDS011;44782;0.000;0.000;2024-02-04T07:30:03;1.73;;;1.63;;
58992;SDS011;44782;0.000;0.000;2024-02-04T07:32:19;1.80;;;1.70;;
58992;SDS011;44782;0.000;0.000;2024-02-04T07:34:36;1.63;;;1.53;;
58992;SDS011;44782;0.000;0.000;2024-02-04T07:36:52;1.50;;;1.40;;
58992;SDS011;44782;0.000;0.000;2024-02-04T07:39:07;1.53;;;1.43;;
58992;SDS011;44782;0.000;0.000;2024-02-04T07:41:23;1.97;;;1.70;;
58992;SDS011;44782;0.000;0.000;2024-02-04T07:43:39;1.60;;;1.50;;
58992;SDS011;44782;0.000;0.000;2024-02-04T07:45:55;1.40;;;1.30;;
58992;SDS011;44782;0.000;0.000;2024-02-04T07:48:10;1.53;;;1.43;;
58992;SDS011;44782;0.000;0.000;2024-02-04T07:50:26;1.50;;;1.40;;
58992;SDS011;44782;0.000;0.000;2024-02-04T07:52:42;1.50;;;1.40;;
58992;SDS011;44782;0.000;0.000;2024-02-04T07:54:58;1.60;;;1.50;;
58992;SDS011;44782;0.000;0.000;2024-02-04T07:57:13;1.67;;;1.57;;
58992;SDS011;44782;0.000;0.000;2024-02-04T07:59:29;1.40;;;1.30;;
58992;SDS011;44782;0.000;0.000;2024-02-04T08:01:45;1.60;;;1.50;;
58992;SDS011;44782;0.000;0.000;2024-02-04T08:04:00;1.47;;;1.37;;
58992;SDS011;44782;0.000;0.000;2024-02-04T08:06:17;1.57;;;1.47;;
58992;SDS011;44782;0.000;0.000;2024-02-04T08:08:33;1.73;;;1.50;;
58992;SDS011;44782;0.000;0.000;2024-02-04T08:10:48;1.42;;;1.33;;
58992;SDS011;44782;0.000;0.000;2024-02-04T08:13:04;1.70;;;1.60;;
58992;SDS011;44782;0.000;0.000;2024-02-04T08:15:20;2.47;;;1.57;;
58992;SDS011;44782;0.000;0.000;2024-02-04T08:17:35;1.37;;;1.27;;
58992;SDS011;44782;0.000;0.000;2024-02-04T08:19:54;2.05;;;1.55;;
58992;SDS011;44782;0.000;0.000;2024-02-04T08:22:09;4.40;;;2.20;;
58992;SDS011;44782;0.000;0.000;2024-02-04T08:24:25;5.07;;;2.73;;
58992;SDS011;44782;0.000;0.000;2024-02-04T08:26:41;5.23;;;2.90;;
58992;SDS011;44782;0.000;0.000;2024-02-04T08:28:56;6.40;;;2.87;;
58992;SDS011;44782;0.000;0.000;2024-02-04T08:31:12;5.83;;;2.53;;
58992;SDS011;44782;0.000;0.000;2024-02-04T08:33:28;6.13;;;2.80;;
58992;SDS011;44782;0.000;0.000;2024-02-04T08:35:43;4.13;;;2.73;;
58992;SDS011;44782;0.000;0.000;2024-02-04T08:37:59;5.27;;;2.50;;
58992;SDS011;44782;0.000;0.000;2024-02-04T08:40:14;6.87;;;2.70;;
58992;SDS011;44782;0.000;0.000;2024-02-04T08:42:30;6.20;;;2.83;;
58992;SDS011;44782;0.000;0.000;2024-02-04T08:44:46;3.03;;;2.50;;
58992;SDS011;44782;0.000;0.000;2024-02-04T08:47:02;3.27;;;2.80;;
58992;SDS011;44782;0.000;0.000;2024-02-04T08:49:18;5.23;;;2.80;;
58992;SDS011;44782;0.000;0.000;2024-02-04T08:51:33;4.13;;;2.53;;
58992;SDS011;44782;0.000;0.000;2024-02-04T08:53:49;4.17;;;2.30;;
58992;SDS011;44782;0.000;0.000;2024-02-04T08:56:05;3.60;;;2.40;;
58992;SDS011;44782;0.000;0.000;2024-02-04T08:58:22;4.10;;;2.60;;
58992;SDS011;44782;0.000;0.000;2024-02-04T09:00:37;4.23;;;2.60;;
58992;SDS011;44782;0.000;0.000;2024-02-04T09:02:53;4.70;;;2.87;;
58992;SDS011;44782;0.000;0.000;2024-02-04T09:05:09;4.07;;;2.30;;
58992;SDS011;44782;0.000;0.000;2024-02-04T09:07:24;3.10;;;1.93;;
58992;SDS011;44782;0.000;0.000;2024-02-04T09:09:40;3.07;;;2.50;;
58992;SDS011;44782;0.000;0.000;2024-02-04T09:11:56;3.33;;;2.20;;
58992;SDS011;44782;0.000;0.000;2024-02-04T09:14:12;3.50;;;2.37;;
58992;SDS011;44782;0.000;0.000;2024-02-04T09:16:27;4.27;;;2.50;;
58992;SDS011;44782;0.000;0.000;2024-02-04T09:18:43;3.90;;;2.27;;
58992;SDS011;44782;0.000;0.000;2024-02-04T09:21:00;3.77;;;2.20;;
58992;SDS011;44782;0.000;0.000;2024-02-04T09:23:17;3.10;;;2.30;;
58992;SDS011;44782;0.000;0.000;2024-02-04T09:25:32;2.43;;;2.10;;
58992;SDS011;44782;0.000;0.000;2024-02-04T09:27:48;3.07;;;2.20;;
58992;SDS011;44782;0.000;0.000;2024-02-04T09:30:04;4.77;;;2.27;;
58992;SDS011;44782;0.000;0.000;2024-02-04T09:32:20;3.30;;;2.30;;
58992;SDS011;44782;0.000;0.000;2024-02-04T09:34:36;2.40;;;2.00;;
58992;SDS011;44782;0.000;0.000;2024-02-04T09:36:55;3.50;;;2.30;;
58992;SDS011;44782;0.000;0.000;2024-02-04T09:39:11;3.30;;;2.30;;
58992;SDS011;44782;0.000;0.000;2024-02-04T09:41:27;2.80;;;2.37;;
58992;SDS011;44782;0.000;0.000;2024-02-04T09:43:43;5.03;;;2.50;;
58992;SDS011;44782;0.000;0.000;2024-02-04T09:46:00;4.47;;;2.10;;
58992;SDS011;44782;0.000;0.000;2024-02-04T09:48:19;2.50;;;2.17;;
58992;SDS011;44782;0.000;0.000;2024-02-04T09:50:35;2.97;;;2.10;;
58992;SDS011;44782;0.000;0.000;2024-02-04T09:52:51;5.30;;;2.40;;
58992;SDS011;44782;0.000;0.000;2024-02-04T09:55:13;3.30;;;2.10;;
58992;SDS011;44782;0.000;0.000;2024-02-04T09:57:32;3.20;;;2.20;;
58992;SDS011;44782;0.000;0.000;2024-02-04T09:59:49;3.43;;;2.23;;
58992;SDS011;44782;0.000;0.000;2024-02-04T10:02:05;2.50;;;2.20;;
58992;SDS011;44782;0.000;0.000;2024-02-04T10:04:22;4.33;;;2.50;;
58992;SDS011;44782;0.000;0.000;2024-02-04T10:06:37;3.03;;;2.20;;
58992;SDS011;44782;0.000;0.000;2024-02-04T10:08:55;4.30;;;1.90;;
58992;SDS011;44782;0.000;0.000;2024-02-04T10:11:11;2.47;;;2.23;;
58992;SDS011;44782;0.000;0.000;2024-02-04T10:13:27;2.80;;;2.20;;
58992;SDS011;44782;0.000;0.000;2024-02-04T10:15:42;2.83;;;2.27;;
58992;SDS011;44782;0.000;0.000;2024-02-04T10:17:58;2.90;;;1.90;;
58992;SDS011;44782;0.000;0.000;2024-02-04T10:20:14;3.50;;;2.27;;
58992;SDS011;44782;0.000;0.000;2024-02-04T10:22:30;6.13;;;2.27;;
58992;SDS011;44782;0.000;0.000;2024-02-04T10:24:46;3.30;;;2.17;;
58992;SDS011;44782;0.000;0.000;2024-02-04T10:27:03;3.53;;;2.20;;
58992;SDS011;44782;0.000;0.000;2024-02-04T10:29:19;3.90;;;2.00;;
58992;SDS011;44782;0.000;0.000;2024-02-04T10:31:35;3.47;;;2.30;;
58992;SDS011;44782;0.000;0.000;2024-02-04T10:33:50;4.70;;;2.53;;
58992;SDS011;44782;0.000;0.000;2024-02-04T10:36:07;2.50;;;2.17;;
58992;SDS011;44782;0.000;0.000;2024-02-04T10:38:23;3.70;;;2.30;;
58992;SDS011;44782;0.000;0.000;2024-02-04T10:40:41;2.93;;;2.20;;
58992;SDS011;44782;0.000;0.000;2024-02-04T10:43:00;5.43;;;2.50;;
58992;SDS011;44782;0.000;0.000;2024-02-04T10:45:20;4.07;;;2.13;;
58992;SDS011;44782;0.000;0.000;2024-02-04T10:47:46;4.33;;;2.30;;
58992;SDS011;44782;0.000;0.000;2024-02-04T10:50:14;3.07;;;2.27;;
58992;SDS011;44782;0.000;0.000;2024-02-04T10:52:38;3.47;;;2.10;;
58992;SDS011;44782;0.000;0.000;2024-02-04T10:54:54;4.20;;;2.40;;
58992;SDS011;44782;0.000;0.000;2024-02-04T10:57:14;7.33;;;2.47;;
58992;SDS011;44782;0.000;0.000;2024-02-04T10:59:35;3.10;;;2.03;;
58992;SDS011;44782;0.000;0.000;2024-02-04T11:01:52;3.50;;;2.17;;
58992;SDS011;44782;0.000;0.000;2024-02-04T11:04:08;2.63;;;2.00;;
58992;SDS011;44782;0.000;0.000;2024-02-04T11:06:28;3.80;;;2.00;;
58992;SDS011;44782;0.000;0.000;2024-02-04T11:08:45;4.27;;;2.00;;
58992;SDS011;44782;0.000;0.000;2024-02-04T11:11:01;3.60;;;2.20;;
58992;SDS011;44782;0.000;0.000;2024-02-04T11:13:17;2.77;;;1.97;;
58992;SDS011;44782;0.000;0.000;2024-02-04T11:15:37;3.08;;;2.20;;
58992;SDS011;44782;0.000;0.000;2024-02-04T11:18:06;2.30;;;2.07;;
58992;SDS011;44782;0.000;0.000;2024-02-04T11:25:42;2.53;;;2.00;;
58992;SDS011;44782;0.000;0.000;2024-02-04T11:28:10;2.13;;;1.93;;
58992;SDS011;44782;0.000;0.000;2024-02-04T11:30:27;2.30;;;2.00;;
58992;SDS011;44782;0.000;0.000;2024-02-04T11:32:47;3.07;;;2.27;;
58992;SDS011;44782;0.000;0.000;2024-02-04T11:35:03;3.63;;;1.93;;
58992;SDS011;44782;0.000;0.000;2024-02-04T11:37:22;2.50;;;2.00;;
58992;SDS011;44782;0.000;0.000;2024-02-04T11:39:47;1.90;;;1.70;;
58992;SDS011;44782;0.000;0.000;2024-02-04T11:42:13;2.53;;;2.13;;
58992;SDS011;44782;0.000;0.000;2024-02-04T11:44:31;3.67;;;2.10;;
58992;SDS011;44782;0.000;0.000;2024-02-04T11:46:46;2.27;;;2.07;;
58992;SDS011;44782;0.000;0.000;2024-02-04T11:49:02;1.93;;;1.70;;
58992;SDS011;44782;0.000;0.000;2024-02-04T11:51:21;2.27;;;1.90;;
58992;SDS011;44782;0.000;0.000;2024-02-04T11:53:40;2.60;;;2.07;;
58992;SDS011;44782;0.000;0.000;2024-02-04T11:55:56;2.43;;;1.90;;
58992;SDS011;44782;0.000;0.000;2024-02-04T11:58:12;2.40;;;1.97;;
58992;SDS011;44782;0.000;0.000;2024-02-04T12:00:28;2.10;;;1.90;;
58992;SDS011;44782;0.000;0.000;2024-02-04T12:02:44;2.37;;;1.67;;
58992;SDS011;44782;0.000;0.000;2024-02-04T12:04:59;3.27;;;1.70;;
58992;SDS011;44782;0.000;0.000;2024-02-04T12:07:15;4.33;;;1.93;;
58992;SDS011;44782;0.000;0.000;2024-02-04T12:09:32;2.17;;;1.80;;
58992;SDS011;44782;0.000;0.000;2024-02-04T12:11:48;1.92;;;1.80;;
58992;SDS011;44782;0.000;0.000;2024-02-04T12:14:04;4.55;;;3.25;;
58992;SDS011;44782;0.000;0.000;2024-02-04T12:16:20;5.43;;;3.67;;
58992;SDS011;44782;0.000;0.000;2024-02-04T12:18:36;8.33;;;7.47;;
58992;SDS011;44782;0.000;0.000;2024-02-04T12:21:03;6.88;;;6.05;;
58992;SDS011;44782;0.000;0.000;2024-02-04T12:23:19;6.85;;;6.15;;
58992;SDS011;44782;0.000;0.000;2024-02-04T12:25:36;10.50;;;9.25;;
58992;SDS011;44782;0.000;0.000;2024-02-04T12:27:51;8.52;;;7.65;;
58992;SDS011;44782;0.000;0.000;2024-02-04T12:30:08;7.80;;;7.07;;
58992;SDS011;44782;0.000;0.000;2024-02-04T12:32:24;7.72;;;6.80;;
58992;SDS011;44782;0.000;0.000;2024-02-04T12:34:40;7.03;;;5.53;;
58992;SDS011;44782;0.000;0.000;2024-02-04T12:36:57;6.95;;;6.25;;
58992;SDS011;44782;0.000;0.000;2024-02-04T12:39:15;6.70;;;6.00;;
58992;SDS011;44782;0.000;0.000;2024-02-04T12:41:30;7.32;;;5.45;;
58992;SDS011;44782;0.000;0.000;2024-02-04T12:43:50;6.95;;;5.72;;
58992;SDS011;44782;0.000;0.000;2024-02-04T12:46:09;5.78;;;5.28;;
58992;SDS011;44782;0.000;0.000;2024-02-04T12:48:25;5.65;;;5.13;;
58992;SDS011;44782;0.000;0.000;2024-02-04T12:50:42;4.63;;;4.22;;
58992;SDS011;44782;0.000;0.000;2024-02-04T12:53:02;5.78;;;4.60;;
58992;SDS011;44782;0.000;0.000;2024-02-04T12:55:28;7.15;;;4.68;;
58992;SDS011;44782;0.000;0.000;2024-02-04T12:57:44;4.82;;;4.40;;
58992;SDS011;44782;0.000;0.000;2024-02-04T13:00:06;4.70;;;4.30;;
58992;SDS011;44782;0.000;0.000;2024-02-04T13:02:23;3.97;;;3.58;;
58992;SDS011;44782;0.000;0.000;2024-02-04T13:04:39;4.70;;;4.30;;
58992;SDS011;44782;0.000;0.000;2024-02-04T13:06:57;5.13;;;4.43;;
58992;SDS011;44782;0.000;0.000;2024-02-04T13:09:14;4.25;;;3.85;;
58992;SDS011;44782;0.000;0.000;2024-02-04T13:11:33;5.82;;;3.88;;
58992;SDS011;44782;0.000;0.000;2024-02-04T13:13:48;4.15;;;3.72;;
58992;SDS011;44782;0.000;0.000;2024-02-04T13:16:04;4.43;;;4.03;;
58992;SDS011;44782;0.000;0.000;2024-02-04T13:18:20;6.55;;;4.05;;
58992;SDS011;44782;0.000;0.000;2024-02-04T13:20:36;3.85;;;3.50;;
58992;SDS011;44782;0.000;0.000;2024-02-04T13:22:51;6.30;;;4.00;;
58992;SDS011;44782;0.000;0.000;2024-02-04T13:25:10;4.43;;;3.90;;
58992;SDS011;44782;0.000;0.000;2024-02-04T13:27:25;4.05;;;3.60;;
58992;SDS011;44782;0.000;0.000;2024-02-04T13:29:43;4.57;;;4.03;;
58992;SDS011;44782;0.000;0.000;2024-02-04T13:31:59;5.13;;;3.60;;
58992;SDS011;44782;0.000;0.000;2024-02-04T13:34:15;4.20;;;3.70;;
58992;SDS011;44782;0.000;0.000;2024-02-04T13:36:31;5.15;;;3.80;;
58992;SDS011;44782;0.000;0.000;2024-02-04T13:38:47;4.50;;;3.40;;
58992;SDS011;44782;0.000;0.000;2024-02-04T13:41:03;6.38;;;3.78;;
58992;SDS011;44782;0.000;0.000;2024-02-04T13:43:21;6.13;;;3.65;;
58992;SDS011;44782;0.000;0.000;2024-02-04T13:45:36;4.38;;;3.63;;
58992;SDS011;44782;0.000;0.000;2024-02-04T13:47:52;4.43;;;3.30;;
58992;SDS011;44782;0.000;0.000;2024-02-04T13:50:08;4.07;;;3.30;;
58992;SDS011;44782;0.000;0.000;2024-02-04T13:52:25;3.53;;;3.22;;
58992;SDS011;44782;0.000;0.000;2024-02-04T13:54:40;3.60;;;3.30;;
58992;SDS011;44782;0.000;0.000;2024-02-04T13:56:56;3.33;;;3.03;;
58992;SDS011;44782;0.000;0.000;2024-02-04T13:59:12;3.40;;;3.10;;
58992;SDS011;44782;0.000;0.000;2024-02-04T14:01:27;3.20;;;2.90;;
58992;SDS011;44782;0.000;0.000;2024-02-04T14:03:43;3.50;;;3.00;;
58992;SDS011;44782;0.000;0.000;2024-02-04T14:05:59;3.10;;;2.80;;
58992;SDS011;44782;0.000;0.000;2024-02-04T14:08:18;3.40;;;2.67;;